TJSJ/SJU METAR and TAF weather

Enter ICAO airport designator
Station Type Date Time Source
TJSJ METAR 2019/04/19 09:56 UTC NOAA

TJSJ 190956Z 12004KT 10SM FEW030 SCT035 SCT045 24/19 A3003 RMK AO2 RAB08E17 SLP169 P0000 T02440194 $


Station Type Date Time Source
TJSJ Decoded METAR 2019/04/19 09:56 UTC NOAA

San Juan, Luis Munoz Marin International Airport, PR, United States (TJSJ) 18-27N 066-00W
Apr 19, 2019 - 05:56 AM EDT / 2019.04.19 0956 UTC
Wind: from the ESE (120 degrees) at 5 MPH (4 KT):0
Visibility: 10 mile(s):0
Sky conditions: partly cloudy
Precipitation last hour: A trace
Temperature: 75.9 F (24.4 C)
Dew Point: 66.9 F (19.4 C)
Relative Humidity: 73%
Pressure (altimeter): 30.03 in. Hg (1016 hPa)
ob: TJSJ 190956Z 12004KT 10SM FEW030 SCT035 SCT045 24/19 A3003 RMK AO2 RAB08E17 SLP169 P0000 T02440194
cycle: 10

Station Type Date Time Source
TJSJ TAF 2019/04/19 10:06 UTC NOAA

TAF TJSJ 191000Z 1910/2006 12004KT P6SM VCSH FEW030 SCT035 SCT045
FM191300 07017G27KT P6SM FEW030 SCT040
FM192200 08012KT P6SM SCT030

Example: see airport list